createdAt,value
2023-06-30T00:00:48.834Z,70.63
2023-06-30T00:01:52.055Z,70.40
2023-06-30T00:02:57.385Z,70.49
2023-06-30T00:04:00.864Z,70.55
2023-06-30T00:05:04.712Z,70.85
2023-06-30T00:06:08.281Z,70.91
2023-06-30T00:07:12.002Z,70.94
2023-06-30T00:08:16.005Z,70.84
2023-06-30T00:09:22.427Z,70.75
2023-06-30T00:10:25.567Z,70.78
2023-06-30T00:11:29.377Z,70.95
2023-06-30T00:12:32.884Z,70.95
2023-06-30T00:13:36.670Z,71.04
2023-06-30T00:14:40.517Z,70.68
2023-06-30T00:15:44.663Z,70.78
2023-06-30T00:16:49.019Z,70.87
2023-06-30T00:17:54.729Z,70.97
2023-06-30T00:18:58.780Z,70.92
2023-06-30T00:20:07.423Z,71.13
2023-06-30T00:21:10.616Z,71.16
2023-06-30T00:22:14.372Z,70.97
2023-06-30T00:23:18.019Z,71.27
2023-06-30T00:24:21.569Z,71.05
2023-06-30T00:25:24.691Z,71.02
2023-06-30T00:26:27.758Z,71.28
2023-06-30T00:27:31.119Z,71.21
2023-06-30T00:28:34.983Z,71.39
2023-06-30T00:29:38.466Z,71.39
2023-06-30T00:30:42.022Z,71.53
2023-06-30T00:31:45.871Z,71.61
2023-06-30T00:32:49.425Z,71.57
2023-06-30T00:33:53.912Z,71.57
2023-06-30T00:34:57.283Z,71.56
2023-06-30T00:36:00.660Z,71.76
2023-06-30T00:37:05.666Z,71.54
2023-06-30T00:38:09.313Z,71.58
2023-06-30T00:39:12.514Z,71.56
2023-06-30T00:40:18.631Z,71.35
2023-06-30T00:41:22.382Z,71.56
2023-06-30T00:42:25.803Z,71.72
2023-06-30T00:43:31.073Z,71.84
2023-06-30T00:44:34.474Z,71.65
2023-06-30T00:45:38.938Z,71.49
2023-06-30T00:46:42.899Z,71.68
2023-06-30T00:47:46.546Z,71.67
2023-06-30T00:48:51.069Z,71.67
2023-06-30T00:49:54.980Z,71.82
2023-06-30T00:50:58.578Z,71.85
2023-06-30T00:52:04.626Z,71.91
2023-06-30T00:53:08.002Z,72.05
2023-06-30T00:54:11.815Z,71.89
2023-06-30T00:55:15.422Z,71.90
2023-06-30T00:56:19.837Z,72.00
2023-06-30T00:57:23.512Z,71.82
2023-06-30T00:58:27.566Z,72.06
2023-06-30T00:59:31.333Z,72.25
2023-06-30T01:00:34.873Z,72.15
2023-06-30T01:01:55.685Z,72.13
2023-06-30T01:03:27.184Z,72.17
2023-06-30T01:04:33.485Z,72.16
2023-06-30T01:05:47.973Z,72.13
2023-06-30T01:07:25.507Z,71.99
2023-06-30T01:08:52.417Z,72.01
2023-06-30T01:10:24.789Z,71.65
2023-06-30T01:11:28.795Z,71.80
2023-06-30T01:12:32.905Z,71.80
2023-06-30T01:13:36.056Z,71.76
2023-06-30T01:14:40.451Z,71.80
2023-06-30T01:15:45.857Z,71.88
2023-06-30T01:16:50.334Z,71.89
2023-06-30T01:17:56.293Z,71.88
2023-06-30T01:19:03.536Z,71.97
2023-06-30T01:20:08.470Z,71.79
2023-06-30T01:21:15.234Z,71.75
2023-06-30T01:22:43.547Z,71.64
2023-06-30T01:23:56.048Z,71.83
2023-06-30T01:25:01.486Z,71.73
2023-06-30T01:26:07.333Z,71.81
2023-06-30T01:27:14.591Z,71.87
2023-06-30T01:28:19.116Z,71.90
2023-06-30T01:29:23.125Z,72.00
2023-06-30T01:30:31.610Z,71.89
2023-06-30T01:31:35.046Z,71.80
2023-06-30T01:32:39.336Z,71.88
2023-06-30T01:33:43.372Z,71.78
2023-06-30T01:34:47.046Z,71.99
2023-06-30T01:35:50.463Z,71.94
2023-06-30T01:36:54.159Z,72.06
2023-06-30T01:37:57.987Z,72.11
2023-06-30T01:39:01.886Z,72.20
2023-06-30T01:40:10.000Z,71.91
2023-06-30T01:41:13.459Z,72.09
2023-06-30T01:42:16.971Z,72.03
2023-06-30T01:43:20.388Z,72.06
2023-06-30T01:44:25.798Z,72.34
2023-06-30T01:45:29.613Z,72.18
2023-06-30T01:46:32.810Z,72.22
2023-06-30T01:47:36.725Z,72.34
2023-06-30T01:48:40.454Z,72.18
2023-06-30T01:49:43.988Z,72.15
2023-06-30T01:50:47.508Z,72.25
2023-06-30T01:51:52.090Z,72.34
2023-06-30T01:52:55.420Z,72.19
2023-06-30T01:53:58.668Z,72.26
2023-06-30T01:55:02.498Z,72.20
2023-06-30T01:56:06.156Z,72.27
2023-06-30T01:57:09.726Z,72.14
2023-06-30T01:58:14.000Z,72.38
2023-06-30T01:59:17.988Z,72.33
2023-06-30T02:00:21.816Z,72.23
2023-06-30T02:01:25.216Z,72.16
2023-06-30T02:02:29.133Z,72.17
2023-06-30T02:03:33.177Z,72.06
2023-06-30T02:04:36.627Z,72.11
2023-06-30T02:05:40.246Z,72.02
2023-06-30T02:06:45.165Z,72.10
2023-06-30T02:07:48.922Z,72.17
2023-06-30T02:08:53.093Z,72.17
2023-06-30T02:09:56.927Z,72.28
2023-06-30T02:11:04.882Z,72.24
2023-06-30T02:12:08.315Z,72.37
2023-06-30T02:13:11.425Z,72.26
2023-06-30T02:14:14.949Z,72.43
2023-06-30T02:15:18.533Z,72.38
2023-06-30T02:16:21.996Z,71.96
2023-06-30T02:17:29.733Z,72.07
2023-06-30T02:18:33.347Z,72.02
2023-06-30T02:19:37.476Z,72.00
2023-06-30T02:20:40.648Z,71.87
2023-06-30T02:21:44.441Z,72.03
2023-06-30T02:22:47.492Z,71.98
2023-06-30T02:23:51.707Z,72.03
2023-06-30T02:24:58.661Z,71.87
2023-06-30T02:26:02.268Z,72.04
2023-06-30T02:27:11.175Z,72.21
2023-06-30T02:28:14.978Z,72.18
2023-06-30T02:29:18.802Z,72.17
2023-06-30T02:30:22.650Z,72.36
2023-06-30T02:31:27.395Z,72.10
2023-06-30T02:32:31.569Z,72.01
2023-06-30T02:33:34.589Z,72.08
2023-06-30T02:34:39.074Z,72.31
2023-06-30T02:35:43.864Z,72.19
2023-06-30T02:36:51.534Z,72.08
2023-06-30T02:37:55.050Z,72.10
2023-06-30T02:39:00.040Z,72.14
2023-06-30T02:40:03.538Z,72.24
2023-06-30T02:41:07.487Z,72.07
2023-06-30T02:42:11.020Z,72.16
2023-06-30T02:43:14.631Z,72.19
2023-06-30T02:44:18.357Z,71.97
2023-06-30T02:45:22.668Z,72.03
2023-06-30T02:46:26.836Z,72.02
2023-06-30T02:47:30.083Z,72.20
2023-06-30T02:48:33.502Z,72.21
2023-06-30T02:49:37.079Z,72.18
2023-06-30T02:50:40.837Z,72.25
2023-06-30T02:51:44.515Z,72.13
2023-06-30T02:52:48.009Z,72.14
2023-06-30T02:53:51.963Z,72.03
2023-06-30T02:54:55.523Z,72.08
2023-06-30T02:55:59.374Z,72.14
2023-06-30T02:57:02.947Z,72.14
2023-06-30T02:58:06.648Z,72.18
2023-06-30T02:59:11.841Z,72.06
2023-06-30T03:00:15.976Z,72.10
2023-06-30T03:01:23.360Z,72.21
2023-06-30T03:02:27.617Z,72.05
2023-06-30T03:03:31.322Z,71.99
2023-06-30T03:04:35.381Z,71.90
2023-06-30T03:05:39.066Z,72.10
2023-06-30T03:06:43.542Z,72.00
2023-06-30T03:07:48.422Z,72.03
2023-06-30T03:08:55.036Z,72.02
2023-06-30T03:10:02.654Z,72.03
2023-06-30T03:11:06.331Z,71.80
2023-06-30T03:12:10.554Z,71.91
2023-06-30T03:13:14.550Z,71.91
2023-06-30T03:14:18.044Z,71.91
2023-06-30T03:15:21.954Z,71.84
2023-06-30T03:16:26.320Z,71.69
2023-06-30T03:17:29.996Z,71.78
2023-06-30T03:18:33.394Z,71.79
2023-06-30T03:19:36.785Z,71.80
2023-06-30T03:20:40.562Z,71.72
2023-06-30T03:21:43.937Z,71.82
2023-06-30T03:22:48.056Z,71.79
2023-06-30T03:23:51.704Z,71.87
2023-06-30T03:24:58.495Z,71.90
2023-06-30T03:26:01.914Z,71.70
2023-06-30T03:27:06.699Z,71.92
2023-06-30T03:28:10.091Z,71.69
2023-06-30T03:29:13.411Z,71.59
2023-06-30T03:30:18.348Z,71.47
2023-06-30T03:31:24.321Z,71.65
2023-06-30T03:32:28.293Z,71.48
2023-06-30T03:33:31.961Z,71.28
2023-06-30T03:34:35.497Z,71.30
2023-06-30T03:35:39.091Z,71.43
2023-06-30T03:36:42.961Z,71.45
2023-06-30T03:37:46.920Z,71.43
2023-06-30T03:38:50.411Z,71.43
2023-06-30T03:39:53.609Z,71.24
2023-06-30T03:40:57.864Z,71.29
2023-06-30T03:42:06.611Z,71.28
2023-06-30T03:43:10.304Z,71.29
2023-06-30T03:44:15.513Z,71.13
2023-06-30T03:45:19.073Z,71.10
2023-06-30T03:46:22.272Z,71.14
2023-06-30T03:47:25.605Z,71.16
2023-06-30T03:48:29.348Z,71.13
2023-06-30T03:49:33.109Z,71.24
2023-06-30T03:50:36.828Z,71.26
2023-06-30T03:51:40.444Z,71.18
2023-06-30T03:52:43.966Z,71.18
2023-06-30T03:53:47.715Z,71.26
2023-06-30T03:54:52.657Z,71.25
2023-06-30T03:55:55.911Z,71.25
2023-06-30T03:56:59.923Z,71.39
2023-06-30T03:58:03.924Z,71.57
2023-06-30T03:59:07.698Z,71.44
2023-06-30T04:00:13.913Z,71.58
2023-06-30T04:01:17.579Z,71.50
2023-06-30T04:02:21.185Z,71.52
2023-06-30T04:03:27.511Z,71.47
2023-06-30T04:04:31.705Z,71.42
2023-06-30T04:05:35.236Z,71.56
2023-06-30T04:06:38.771Z,71.37
2023-06-30T04:07:42.330Z,71.40
2023-06-30T04:08:46.686Z,71.46
2023-06-30T04:09:50.150Z,71.65
2023-06-30T04:10:53.458Z,71.50
2023-06-30T04:11:57.505Z,71.59
2023-06-30T04:13:00.917Z,71.69
2023-06-30T04:14:04.562Z,71.67
2023-06-30T04:15:09.727Z,71.76
2023-06-30T04:16:13.430Z,71.82
2023-06-30T04:17:16.725Z,71.79
2023-06-30T04:18:19.897Z,71.82
2023-06-30T04:19:23.516Z,71.70
2023-06-30T04:20:27.745Z,71.76
2023-06-30T04:21:31.165Z,71.83
2023-06-30T04:22:34.373Z,71.84
2023-06-30T04:23:41.446Z,71.85
2023-06-30T04:24:44.566Z,71.84
2023-06-30T04:25:48.154Z,71.82
2023-06-30T04:26:51.642Z,71.79
2023-06-30T04:27:54.779Z,71.81
2023-06-30T04:28:58.555Z,71.99
2023-06-30T04:30:02.528Z,71.90
2023-06-30T04:31:07.064Z,71.90
2023-06-30T04:32:10.680Z,71.93
2023-06-30T04:33:14.434Z,72.00
2023-06-30T04:34:17.946Z,71.96
2023-06-30T04:35:27.361Z,71.72
2023-06-30T04:36:31.131Z,71.89
2023-06-30T04:37:34.794Z,72.08
2023-06-30T04:38:38.295Z,71.92
2023-06-30T04:39:41.869Z,71.93
2023-06-30T04:40:45.360Z,71.89
2023-06-30T04:41:48.973Z,71.96
2023-06-30T04:42:52.470Z,71.74
2023-06-30T04:43:56.266Z,71.73
2023-06-30T04:44:59.494Z,72.01
2023-06-30T04:46:02.804Z,72.04
2023-06-30T04:47:06.138Z,71.95
2023-06-30T04:48:09.714Z,71.84
2023-06-30T04:49:13.455Z,72.08
2023-06-30T04:50:17.226Z,72.00
2023-06-30T04:51:21.149Z,71.96
2023-06-30T04:52:24.907Z,72.13
2023-06-30T04:53:28.000Z,72.03
2023-06-30T04:54:32.913Z,72.19
2023-06-30T04:55:36.719Z,72.09
2023-06-30T04:56:40.428Z,71.87
2023-06-30T04:57:43.763Z,71.86
2023-06-30T04:58:47.196Z,71.98
2023-06-30T04:59:54.035Z,71.97
2023-06-30T05:00:58.361Z,72.01
2023-06-30T05:02:02.327Z,71.89
2023-06-30T05:03:06.052Z,71.92
2023-06-30T05:04:09.861Z,72.10
2023-06-30T05:05:14.235Z,72.09
2023-06-30T05:06:17.608Z,72.00
2023-06-30T05:07:21.258Z,71.83
2023-06-30T05:08:24.644Z,71.93
2023-06-30T05:09:28.010Z,71.97
2023-06-30T05:10:31.523Z,71.78
2023-06-30T05:11:34.867Z,71.71
2023-06-30T05:12:38.345Z,71.85
2023-06-30T05:13:41.735Z,71.83
2023-06-30T05:14:45.281Z,71.62
2023-06-30T05:15:48.486Z,71.71
2023-06-30T05:16:52.830Z,71.66
2023-06-30T05:17:56.722Z,71.62
2023-06-30T05:18:59.953Z,71.59
2023-06-30T05:20:07.212Z,71.70
2023-06-30T05:21:11.089Z,71.64
2023-06-30T05:22:14.608Z,71.73
2023-06-30T05:23:18.434Z,71.57
2023-06-30T05:24:21.872Z,71.64
2023-06-30T05:25:25.068Z,71.60
2023-06-30T05:26:28.448Z,71.52
2023-06-30T05:27:32.849Z,71.45
2023-06-30T05:28:38.892Z,71.38
2023-06-30T05:29:42.625Z,71.26
2023-06-30T05:30:45.977Z,71.11
2023-06-30T05:31:49.277Z,71.12
2023-06-30T05:32:52.573Z,71.08
2023-06-30T05:33:55.886Z,71.00
2023-06-30T05:34:59.414Z,70.89
2023-06-30T05:36:03.182Z,70.77
2023-06-30T05:37:06.715Z,70.67
2023-06-30T05:38:10.371Z,70.63
2023-06-30T05:39:14.333Z,70.63
2023-06-30T05:40:18.168Z,70.40
2023-06-30T05:41:21.689Z,70.36
2023-06-30T05:42:24.987Z,70.07
2023-06-30T05:43:28.626Z,69.74
2023-06-30T05:44:32.532Z,69.75
2023-06-30T05:45:36.310Z,69.52
2023-06-30T05:46:40.188Z,69.26
2023-06-30T05:47:43.998Z,68.87
2023-06-30T05:48:47.769Z,68.27
2023-06-30T05:49:51.448Z,67.60
2023-06-30T05:50:54.942Z,66.22
2023-06-30T05:51:58.053Z,65.09
2023-06-30T05:53:01.857Z,63.85
2023-06-30T05:54:05.334Z,62.67
2023-06-30T05:55:09.547Z,61.11
2023-06-30T05:56:13.146Z,59.69
2023-06-30T05:57:16.223Z,58.46
2023-06-30T05:58:19.189Z,57.19
2023-06-30T05:59:22.436Z,56.00
2023-06-30T06:00:26.696Z,54.79
2023-06-30T06:01:30.006Z,54.06
2023-06-30T06:02:34.825Z,53.11
2023-06-30T06:03:38.553Z,51.84
2023-06-30T06:04:42.039Z,51.33
2023-06-30T06:05:46.393Z,50.37
2023-06-30T06:06:50.363Z,49.26
2023-06-30T06:07:53.533Z,48.50
2023-06-30T06:08:56.623Z,47.55
2023-06-30T06:10:00.157Z,46.24
2023-06-30T06:11:04.061Z,46.00
2023-06-30T06:12:08.359Z,45.42
2023-06-30T06:13:11.934Z,44.37
2023-06-30T06:14:15.044Z,44.00
2023-06-30T06:15:18.062Z,43.15
2023-06-30T06:16:22.197Z,42.53
2023-06-30T06:17:25.375Z,42.82
2023-06-30T06:18:28.992Z,41.58
2023-06-30T06:19:32.735Z,41.12
2023-06-30T06:20:36.474Z,40.72
2023-06-30T06:21:39.961Z,40.41
2023-06-30T06:22:43.080Z,40.11
2023-06-30T06:23:46.960Z,39.81
2023-06-30T06:24:50.438Z,39.29
2023-06-30T06:25:53.590Z,38.68
2023-06-30T06:26:57.129Z,38.55
2023-06-30T06:28:00.841Z,38.15
2023-06-30T06:29:04.875Z,37.81
2023-06-30T06:30:08.749Z,37.20
2023-06-30T06:31:11.973Z,36.90
2023-06-30T06:32:15.383Z,36.45
2023-06-30T06:33:18.932Z,36.31
2023-06-30T06:34:22.605Z,36.32
2023-06-30T06:35:26.237Z,35.52
2023-06-30T06:36:29.631Z,35.28
2023-06-30T06:37:33.313Z,34.86
2023-06-30T06:38:36.844Z,34.95
2023-06-30T06:39:40.364Z,34.75
2023-06-30T06:40:44.044Z,34.57
2023-06-30T06:41:47.160Z,34.42
2023-06-30T06:42:53.446Z,34.35
2023-06-30T06:44:03.024Z,34.08
2023-06-30T06:45:06.889Z,33.87
2023-06-30T06:46:10.417Z,33.70
2023-06-30T06:47:50.654Z,33.80
2023-06-30T06:48:54.386Z,33.54
2023-06-30T06:49:58.036Z,33.05
2023-06-30T06:51:05.031Z,32.55
2023-06-30T06:52:08.409Z,32.45
2023-06-30T06:53:11.383Z,31.38
2023-06-30T06:54:15.077Z,31.08
2023-06-30T06:55:18.546Z,31.13
2023-06-30T06:56:22.351Z,30.92
2023-06-30T06:57:25.629Z,30.86
2023-06-30T06:58:31.754Z,30.45
2023-06-30T06:59:35.274Z,29.71
2023-06-30T07:00:38.550Z,30.18
2023-06-30T07:01:42.244Z,28.91
2023-06-30T07:02:46.246Z,29.31
2023-06-30T07:03:49.987Z,29.32
2023-06-30T07:04:53.708Z,29.23
2023-06-30T07:05:58.974Z,28.89
2023-06-30T07:07:02.299Z,28.84
2023-06-30T07:08:06.811Z,29.00
2023-06-30T07:09:10.283Z,29.22
2023-06-30T07:10:14.161Z,28.92
2023-06-30T07:11:17.234Z,29.13
2023-06-30T07:12:20.571Z,29.12
2023-06-30T07:13:23.975Z,29.23
2023-06-30T07:14:27.544Z,29.17
2023-06-30T07:15:31.483Z,28.70
2023-06-30T07:16:34.846Z,28.89
2023-06-30T07:17:38.773Z,28.20
2023-06-30T07:18:42.286Z,27.96
2023-06-30T07:19:45.899Z,27.79
2023-06-30T07:20:49.354Z,27.81
2023-06-30T07:21:53.104Z,27.42
2023-06-30T07:22:57.956Z,27.22
2023-06-30T07:24:01.338Z,27.25
2023-06-30T07:25:05.387Z,26.39
2023-06-30T07:26:08.930Z,27.10
2023-06-30T07:27:12.383Z,26.13
2023-06-30T07:28:16.017Z,26.20
2023-06-30T07:29:19.836Z,26.34
2023-06-30T07:30:25.220Z,25.36
2023-06-30T07:31:32.595Z,25.57
2023-06-30T07:32:36.239Z,25.66
2023-06-30T07:33:39.549Z,26.34
2023-06-30T07:34:42.630Z,25.61
2023-06-30T07:35:46.875Z,25.66
2023-06-30T07:36:50.601Z,25.41
2023-06-30T07:37:53.873Z,25.23
2023-06-30T07:38:57.249Z,24.99
2023-06-30T07:40:12.273Z,25.58
2023-06-30T07:41:20.082Z,25.60
2023-06-30T07:42:23.670Z,25.63
2023-06-30T07:43:27.205Z,25.89
2023-06-30T07:44:30.550Z,25.92
2023-06-30T07:45:34.317Z,25.84
2023-06-30T07:46:37.569Z,25.19
2023-06-30T07:47:44.629Z,25.66
2023-06-30T07:48:47.775Z,25.69
2023-06-30T07:49:51.132Z,26.38
2023-06-30T07:51:07.850Z,25.91
2023-06-30T07:52:13.305Z,26.29
2023-06-30T07:53:17.040Z,25.78
2023-06-30T07:54:21.688Z,25.83
2023-06-30T07:55:25.115Z,25.99
2023-06-30T07:56:28.964Z,25.61
2023-06-30T07:57:32.390Z,25.09
2023-06-30T07:58:35.911Z,24.94
2023-06-30T07:59:39.345Z,25.29
2023-06-30T08:00:43.022Z,24.72
2023-06-30T08:01:46.419Z,24.77
2023-06-30T08:02:49.980Z,24.47
2023-06-30T08:03:53.876Z,24.47
2023-06-30T08:04:57.274Z,23.82
2023-06-30T08:06:01.064Z,23.69
2023-06-30T08:07:06.178Z,23.07
2023-06-30T08:08:10.100Z,23.14
2023-06-30T08:09:13.718Z,23.60
2023-06-30T08:10:17.125Z,23.62
2023-06-30T08:11:20.611Z,23.38
2023-06-30T08:12:24.248Z,23.25
2023-06-30T08:13:28.095Z,22.41
2023-06-30T08:14:31.706Z,22.22
2023-06-30T08:15:34.906Z,22.40
2023-06-30T08:16:38.300Z,22.49
2023-06-30T08:17:54.722Z,22.41
2023-06-30T08:19:01.898Z,22.24
2023-06-30T08:20:05.742Z,22.48
2023-06-30T08:21:09.087Z,22.35
2023-06-30T08:22:15.900Z,22.49
2023-06-30T08:23:19.925Z,21.64
2023-06-30T08:24:24.528Z,21.51
2023-06-30T08:25:27.961Z,21.74
2023-06-30T08:26:31.610Z,21.93
2023-06-30T08:27:35.061Z,21.44
2023-06-30T08:28:38.918Z,20.98
2023-06-30T08:29:42.959Z,20.83
2023-06-30T08:30:45.983Z,20.95
2023-06-30T08:31:49.232Z,21.33
2023-06-30T08:32:52.540Z,20.90
2023-06-30T08:33:56.032Z,20.40
2023-06-30T08:34:59.351Z,20.44
2023-06-30T08:36:03.606Z,20.46
2023-06-30T08:37:07.801Z,19.94
2023-06-30T08:38:11.589Z,20.32
2023-06-30T08:39:15.419Z,20.68
2023-06-30T08:40:28.652Z,20.55
2023-06-30T08:41:32.118Z,20.35
2023-06-30T08:42:38.088Z,21.24
2023-06-30T08:43:41.434Z,20.65
2023-06-30T08:44:48.169Z,20.94
2023-06-30T08:45:51.440Z,20.70
2023-06-30T08:46:55.166Z,20.54
2023-06-30T08:48:04.386Z,20.50
2023-06-30T08:49:07.715Z,20.07
2023-06-30T08:50:11.339Z,20.21
2023-06-30T08:51:17.293Z,20.56
2023-06-30T08:52:20.834Z,20.55
2023-06-30T08:53:25.362Z,19.87
2023-06-30T08:54:33.248Z,19.89
2023-06-30T08:55:36.263Z,19.76
2023-06-30T08:56:41.971Z,19.74
2023-06-30T08:57:45.728Z,19.47
2023-06-30T08:58:49.280Z,19.42
2023-06-30T08:59:53.068Z,20.07
2023-06-30T09:00:57.703Z,20.42
2023-06-30T09:02:01.671Z,20.00
2023-06-30T09:03:07.940Z,20.17
2023-06-30T09:04:11.806Z,20.21
2023-06-30T09:05:16.059Z,19.97
2023-06-30T09:06:19.883Z,19.87
2023-06-30T09:07:28.081Z,20.40
2023-06-30T09:08:58.250Z,19.71
2023-06-30T09:10:05.232Z,20.11
2023-06-30T09:11:10.305Z,20.13
2023-06-30T09:12:14.368Z,19.72
2023-06-30T09:13:21.933Z,19.91
2023-06-30T09:14:25.834Z,19.97
2023-06-30T09:15:28.789Z,19.86
2023-06-30T09:16:32.776Z,20.23
2023-06-30T09:17:36.070Z,19.85
2023-06-30T09:18:39.441Z,20.00
2023-06-30T09:19:42.887Z,20.04
2023-06-30T09:20:46.341Z,20.61
2023-06-30T09:21:50.405Z,20.86
2023-06-30T09:22:57.093Z,20.37
2023-06-30T09:24:00.930Z,20.55
2023-06-30T09:25:05.932Z,20.15
2023-06-30T09:26:16.091Z,20.57
2023-06-30T09:27:20.302Z,20.06
2023-06-30T09:28:23.427Z,19.80
2023-06-30T09:29:27.262Z,19.79
2023-06-30T09:30:34.451Z,19.11
2023-06-30T09:31:38.970Z,19.55
2023-06-30T09:32:43.239Z,18.90
2023-06-30T09:33:50.107Z,19.06
2023-06-30T09:34:56.124Z,19.39
2023-06-30T09:36:00.787Z,19.35
2023-06-30T09:37:03.932Z,19.37
2023-06-30T09:38:17.595Z,19.78
2023-06-30T09:39:21.266Z,19.76
2023-06-30T09:40:27.678Z,19.93
2023-06-30T09:41:31.447Z,19.54
2023-06-30T09:42:36.055Z,19.87
2023-06-30T09:43:39.476Z,20.10
2023-06-30T09:44:43.150Z,20.04
2023-06-30T09:45:48.041Z,19.89
2023-06-30T09:46:55.691Z,19.96
2023-06-30T09:47:59.460Z,20.14
2023-06-30T09:49:06.894Z,20.03
2023-06-30T09:50:12.197Z,20.53
2023-06-30T09:51:20.869Z,19.86
2023-06-30T09:52:29.496Z,20.47
2023-06-30T09:53:39.180Z,20.09
2023-06-30T09:54:44.863Z,20.25
2023-06-30T09:55:52.830Z,19.78
2023-06-30T09:57:03.217Z,20.68
2023-06-30T09:58:06.141Z,21.10
2023-06-30T09:59:09.193Z,20.30
2023-06-30T10:00:25.918Z,20.10
2023-06-30T10:01:38.963Z,20.14
2023-06-30T10:02:42.658Z,19.86
2023-06-30T10:03:50.420Z,19.78
2023-06-30T10:04:53.427Z,20.01
2023-06-30T10:05:57.389Z,19.90
2023-06-30T10:07:01.489Z,19.77
2023-06-30T10:08:05.089Z,20.01
2023-06-30T10:09:08.555Z,19.50
2023-06-30T10:10:13.132Z,19.28
2023-06-30T10:11:17.002Z,19.35
2023-06-30T10:12:20.664Z,19.46
2023-06-30T10:13:24.144Z,19.34
2023-06-30T10:14:36.260Z,19.52
2023-06-30T10:15:39.623Z,19.43
2023-06-30T10:16:42.503Z,19.92
2023-06-30T10:17:45.917Z,19.84
2023-06-30T10:18:49.668Z,19.47
2023-06-30T10:19:53.327Z,19.42
2023-06-30T10:20:56.711Z,19.23
2023-06-30T10:21:59.974Z,19.31
2023-06-30T10:23:03.684Z,19.48
2023-06-30T10:24:07.280Z,19.35
2023-06-30T10:25:10.638Z,19.76
2023-06-30T10:26:15.097Z,19.36
2023-06-30T10:27:20.043Z,19.38
2023-06-30T10:28:23.134Z,19.49
2023-06-30T10:29:26.853Z,19.76
2023-06-30T10:30:30.400Z,19.81
2023-06-30T10:31:34.096Z,19.76
2023-06-30T10:32:37.932Z,19.85
2023-06-30T10:33:41.724Z,19.40
2023-06-30T10:34:45.030Z,19.72
2023-06-30T10:35:48.927Z,19.01
2023-06-30T10:36:52.643Z,19.73
2023-06-30T10:37:57.577Z,19.16
2023-06-30T10:39:01.545Z,19.04
2023-06-30T10:40:29.182Z,19.36
2023-06-30T10:41:32.978Z,19.54
2023-06-30T10:42:39.153Z,19.33
2023-06-30T10:44:03.757Z,19.02
2023-06-30T10:45:08.687Z,19.35
2023-06-30T10:46:12.823Z,20.02
2023-06-30T10:47:16.525Z,20.30
2023-06-30T10:48:19.782Z,20.14
2023-06-30T10:49:35.524Z,19.16
2023-06-30T10:50:43.084Z,19.37
2023-06-30T10:51:48.406Z,19.39
2023-06-30T10:52:52.750Z,19.73
2023-06-30T10:53:56.228Z,19.29
2023-06-30T10:55:06.631Z,19.41
2023-06-30T10:56:10.949Z,19.32
2023-06-30T10:57:21.981Z,19.50
2023-06-30T10:58:25.631Z,19.52
2023-06-30T10:59:29.223Z,19.24
2023-06-30T11:00:33.276Z,20.05
2023-06-30T11:01:39.299Z,19.61
2023-06-30T11:03:01.476Z,19.05
2023-06-30T11:04:10.813Z,19.37
2023-06-30T11:05:23.955Z,19.27
2023-06-30T11:06:27.381Z,19.06
2023-06-30T11:07:31.268Z,19.37
2023-06-30T11:08:34.903Z,19.18
2023-06-30T11:09:52.483Z,19.33
2023-06-30T11:11:03.159Z,19.19
2023-06-30T11:12:06.781Z,19.08
2023-06-30T11:13:13.734Z,19.79
2023-06-30T11:14:23.250Z,19.29
2023-06-30T11:15:53.336Z,19.07
2023-06-30T11:17:09.140Z,19.13
2023-06-30T11:18:16.967Z,19.40
2023-06-30T11:19:26.869Z,19.33
2023-06-30T11:20:33.707Z,19.23
2023-06-30T11:21:41.275Z,19.79
2023-06-30T11:23:17.797Z,19.88
2023-06-30T11:24:21.431Z,19.88
2023-06-30T11:25:24.657Z,19.53
2023-06-30T11:26:28.437Z,19.31
2023-06-30T11:27:32.491Z,20.34
2023-06-30T11:28:35.855Z,19.83
2023-06-30T11:29:39.528Z,21.34
2023-06-30T11:30:43.119Z,20.79
2023-06-30T11:31:46.327Z,20.69
2023-06-30T11:32:49.320Z,20.12
2023-06-30T11:33:52.659Z,20.14
2023-06-30T11:34:57.691Z,20.13
2023-06-30T11:36:01.183Z,20.12
2023-06-30T11:37:07.794Z,20.33
2023-06-30T11:38:10.782Z,21.06
2023-06-30T11:39:15.913Z,20.55
2023-06-30T11:40:20.090Z,21.29
2023-06-30T11:41:23.916Z,20.96
2023-06-30T11:42:27.479Z,21.32
2023-06-30T11:43:34.206Z,21.45
2023-06-30T11:44:38.651Z,22.00
2023-06-30T11:45:42.193Z,21.95
2023-06-30T11:46:45.862Z,22.30
2023-06-30T11:47:56.051Z,22.98
2023-06-30T11:48:59.532Z,22.88
2023-06-30T11:50:09.493Z,23.59
2023-06-30T11:51:15.306Z,23.95
2023-06-30T11:52:20.442Z,24.25
2023-06-30T11:53:24.320Z,24.20
2023-06-30T11:54:32.253Z,24.36
2023-06-30T11:55:35.898Z,25.30
2023-06-30T11:56:42.259Z,25.02
2023-06-30T11:57:49.151Z,25.66
2023-06-30T11:58:52.926Z,26.05
2023-06-30T11:59:56.662Z,26.64
2023-06-30T12:01:00.285Z,26.45
2023-06-30T12:02:07.600Z,27.27
2023-06-30T12:03:10.700Z,27.45
2023-06-30T12:04:13.870Z,28.43
2023-06-30T12:05:18.897Z,29.21
2023-06-30T12:06:26.652Z,29.87
2023-06-30T12:07:29.825Z,30.12
2023-06-30T12:08:32.881Z,30.92
2023-06-30T12:09:36.735Z,31.05
2023-06-30T12:10:40.807Z,31.80
2023-06-30T12:11:44.731Z,32.74
2023-06-30T12:12:58.568Z,32.59
2023-06-30T12:14:08.627Z,32.50
2023-06-30T12:15:13.126Z,32.81
2023-06-30T12:16:16.409Z,33.44
2023-06-30T12:17:20.627Z,33.87
2023-06-30T12:18:39.509Z,33.49
2023-06-30T12:19:43.470Z,33.37
2023-06-30T12:20:46.862Z,34.22
2023-06-30T12:22:01.503Z,34.10
2023-06-30T12:23:06.177Z,34.44
2023-06-30T12:24:09.840Z,34.27
2023-06-30T12:25:14.310Z,34.70
2023-06-30T12:26:17.957Z,34.22
2023-06-30T12:27:21.626Z,34.19
2023-06-30T12:28:24.717Z,35.10
2023-06-30T12:29:32.966Z,34.54
2023-06-30T12:30:36.552Z,35.34
2023-06-30T12:31:43.731Z,34.51
2023-06-30T12:32:47.314Z,34.83
2023-06-30T12:33:55.546Z,35.01
2023-06-30T12:35:07.152Z,35.10
2023-06-30T12:36:11.536Z,35.42
2023-06-30T12:37:17.129Z,35.29
2023-06-30T12:38:20.934Z,35.52
2023-06-30T12:39:24.229Z,35.81
2023-06-30T12:40:29.058Z,35.82
2023-06-30T12:41:32.554Z,36.02
2023-06-30T12:42:36.387Z,36.09
2023-06-30T12:43:40.169Z,35.42
2023-06-30T12:44:43.672Z,36.15
2023-06-30T12:45:47.559Z,36.20
2023-06-30T12:47:09.730Z,37.05
2023-06-30T12:48:12.927Z,37.69
2023-06-30T12:49:16.042Z,36.77
2023-06-30T12:50:21.013Z,36.90
2023-06-30T12:51:24.238Z,36.42
2023-06-30T12:52:27.697Z,36.62
2023-06-30T12:53:31.816Z,36.89
2023-06-30T12:54:35.352Z,36.98
2023-06-30T12:55:38.896Z,37.19
2023-06-30T12:56:42.426Z,36.97
2023-06-30T12:57:45.796Z,36.79
2023-06-30T12:58:49.443Z,36.83
2023-06-30T12:59:53.201Z,36.83
2023-06-30T13:00:59.071Z,37.20
2023-06-30T13:02:02.362Z,36.75
2023-06-30T13:03:06.881Z,37.14
2023-06-30T13:04:10.670Z,36.76
2023-06-30T13:05:14.166Z,36.86
2023-06-30T13:06:17.386Z,37.03
2023-06-30T13:07:20.940Z,36.88
2023-06-30T13:08:24.424Z,37.20
2023-06-30T13:09:28.517Z,37.57
2023-06-30T13:10:32.073Z,37.09
2023-06-30T13:11:35.823Z,37.45
2023-06-30T13:12:42.470Z,38.35
2023-06-30T13:13:46.167Z,37.95
2023-06-30T13:14:49.507Z,38.12
2023-06-30T13:15:54.088Z,38.03
2023-06-30T13:16:57.153Z,39.33
2023-06-30T13:18:00.617Z,38.28
2023-06-30T13:19:04.683Z,38.47
2023-06-30T13:20:10.031Z,38.49
2023-06-30T13:21:14.168Z,38.98
2023-06-30T13:22:17.729Z,38.44
2023-06-30T13:23:35.996Z,38.67
2023-06-30T13:24:40.857Z,38.76
2023-06-30T13:25:44.821Z,39.11
2023-06-30T13:26:49.171Z,39.24
2023-06-30T13:27:52.878Z,39.11
2023-06-30T13:28:56.770Z,39.09
2023-06-30T13:30:00.868Z,40.38
2023-06-30T13:31:06.282Z,39.73
2023-06-30T13:32:10.028Z,40.56
2023-06-30T13:33:13.370Z,40.25
2023-06-30T13:34:16.753Z,39.50
2023-06-30T13:35:21.029Z,40.88
2023-06-30T13:36:26.025Z,40.76
2023-06-30T13:37:30.921Z,40.42
2023-06-30T13:38:34.137Z,40.45
2023-06-30T13:39:40.511Z,40.96
2023-06-30T13:40:44.570Z,41.04
2023-06-30T13:41:49.048Z,42.00
2023-06-30T13:42:52.561Z,41.18
2023-06-30T13:43:55.658Z,41.11
2023-06-30T13:44:59.355Z,41.64
2023-06-30T13:46:03.348Z,40.80
2023-06-30T13:47:07.219Z,41.10
2023-06-30T13:48:10.478Z,41.19
2023-06-30T13:49:14.313Z,40.36
2023-06-30T13:50:17.967Z,40.84
2023-06-30T13:51:22.761Z,41.79
2023-06-30T13:52:25.901Z,41.32
2023-06-30T13:53:28.796Z,41.40
2023-06-30T13:54:32.702Z,41.68
2023-06-30T13:55:36.331Z,40.99
2023-06-30T13:56:39.789Z,41.60